This is the latest recevied weather packets stored in our database for station/object TG9ADI-20. If no packets are shown the sender has not sent any weather packets the latest 1 day(s).
| Time | Temp. | Humidity | Pressure | Rain* | Wind** | Luminosity | Snow |
|---|---|---|---|---|---|---|---|
| 1778039309 | 20° C | 92% | 1015 hPa | 0 mm | - | - | - |
| 1778038709 | 20° C | 93% | 1015 hPa | 0 mm | - | - | - |
| 1778038108 | 19.44° C | 92% | 1015 hPa | 0 mm | - | - | - |
| 1778036907 | 19.44° C | 92% | 1015 hPa | 0 mm | - | - | - |
| 1778036306 | 20° C | 92% | 1015 hPa | 0 mm | - | - | - |
| 1778035706 | 20° C | 93% | 1015 hPa | 0 mm | - | - | - |
| 1778035105 | 19.44° C | 93% | 1015 hPa | 0 mm | - | - | - |
| 1778034504 | 19.44° C | 93% | 1014 hPa | 0 mm | - | - | - |
| 1778033904 | 19.44° C | 93% | 1014 hPa | 0 mm | - | - | - |
| 1778032703 | 20.56° C | 93% | 1014 hPa | 0 mm | - | - | - |
| 1778032102 | 18.33° C | 98% | 1014 hPa | 0 mm | - | - | - |
| 1778030901 | 19.44° C | 97% | 1013 hPa | 0 mm | - | - | - |
| 1778030300 | 19.44° C | 97% | 1013 hPa | 0 mm | - | - | - |
| 1778029700 | 20.56° C | 93% | 1013 hPa | 0 mm | - | - | - |
| 1778029099 | 19.44° C | 10% | - | 0 mm | - | - | - |
| 1778027898 | 19.44° C | 94% | 1013 hPa | 0 mm | - | - | - |
| 1778026697 | 21.67° C | 88% | 1012 hPa | 0 mm | - | - | - |
| 1778025496 | 20.56° C | 95% | 1012 hPa | 0 mm | - | - | - |
| 1778022493 | 23.89° C | 81% | 1011 hPa | 0 mm | - | - | - |
| 1778018289 | 23.89° C | 10% | - | 0.25 mm | - | - | - |
* Rain latest hour (hover to see other rain measurements)
** Current wind speed in m/s (hover to see current wind gust speed)